sensor_id;sensor_type;location;lat;lon;timestamp;pressure;altitude;pressure_sealevel;temperature;humidity
15634;BME280;14654;48.898;8.308;2023-05-25T00:01:02;100719.59;;;10.77;87.47
15634;BME280;14654;48.898;8.308;2023-05-25T00:03:28;100733.44;;;10.67;87.87
15634;BME280;14654;48.898;8.308;2023-05-25T00:05:55;100736.03;;;10.61;86.69
15634;BME280;14654;48.898;8.308;2023-05-25T00:08:20;100726.56;;;10.54;86.30
15634;BME280;14654;48.898;8.308;2023-05-25T00:10:45;100733.47;;;10.41;86.68
15634;BME280;14654;48.898;8.308;2023-05-25T00:13:11;100735.19;;;10.42;86.13
15634;BME280;14654;48.898;8.308;2023-05-25T00:15:36;100734.34;;;10.38;86.46
15634;BME280;14654;48.898;8.308;2023-05-25T00:18:01;100732.59;;;10.34;86.64
15634;BME280;14654;48.898;8.308;2023-05-25T00:20:27;100732.59;;;10.32;87.09
15634;BME280;14654;48.898;8.308;2023-05-25T00:22:52;100729.16;;;10.26;88.21
15634;BME280;14654;48.898;8.308;2023-05-25T00:25:21;100724.84;;;10.42;88.77
15634;BME280;14654;48.898;8.308;2023-05-25T00:27:46;100711.91;;;10.42;88.53
15634;BME280;14654;48.898;8.308;2023-05-25T00:30:13;100711.03;;;10.33;88.69
15634;BME280;14654;48.898;8.308;2023-05-25T00:32:38;100708.47;;;10.41;88.45
15634;BME280;14654;48.898;8.308;2023-05-25T00:35:04;100709.31;;;10.37;89.25
15634;BME280;14654;48.898;8.308;2023-05-25T00:37:30;100703.28;;;10.33;89.27
15634;BME280;14654;48.898;8.308;2023-05-25T00:39:55;100709.31;;;10.29;89.38
15634;BME280;14654;48.898;8.308;2023-05-25T00:42:20;100706.72;;;10.32;89.65
15634;BME280;14654;48.898;8.308;2023-05-25T00:44:47;100710.19;;;10.27;89.96
15634;BME280;14654;48.898;8.308;2023-05-25T00:47:12;100701.53;;;10.31;89.92
15634;BME280;14654;48.898;8.308;2023-05-25T00:49:39;100698.97;;;10.29;90.16
15634;BME280;14654;48.898;8.308;2023-05-25T00:52:05;100706.75;;;10.28;90.78
15634;BME280;14654;48.898;8.308;2023-05-25T00:54:30;100709.31;;;10.35;90.76
15634;BME280;14654;48.898;8.308;2023-05-25T00:57:01;100709.31;;;10.29;91.05
15634;BME280;14654;48.898;8.308;2023-05-25T00:59:32;100711.03;;;10.27;91.03
15634;BME280;14654;48.898;8.308;2023-05-25T01:02:07;100716.22;;;10.24;91.31
15634;BME280;14654;48.898;8.308;2023-05-25T01:04:38;100721.38;;;10.22;91.60
15634;BME280;14654;48.898;8.308;2023-05-25T01:07:05;100706.72;;;10.21;91.26
15634;BME280;14654;48.898;8.308;2023-05-25T01:09:34;100715.34;;;10.25;90.29
15634;BME280;14654;48.898;8.308;2023-05-25T01:12:01;100713.63;;;10.24;90.40
15634;BME280;14654;48.898;8.308;2023-05-25T01:14:27;100718.78;;;10.29;90.50
15634;BME280;14654;48.898;8.308;2023-05-25T01:16:53;100715.34;;;10.28;89.76
15634;BME280;14654;48.898;8.308;2023-05-25T01:19:23;100718.78;;;10.21;89.74
15634;BME280;14654;48.898;8.308;2023-05-25T01:22:12;100717.06;;;10.26;88.40
15634;BME280;14654;48.898;8.308;2023-05-25T01:24:45;100726.56;;;10.27;88.76
15634;BME280;14654;48.898;8.308;2023-05-25T01:27:24;100718.78;;;10.16;89.62
15634;BME280;14654;48.898;8.308;2023-05-25T01:29:52;100725.69;;;10.05;90.33
15634;BME280;14654;48.898;8.308;2023-05-25T01:32:18;100731.75;;;10.02;90.99
15634;BME280;14654;48.898;8.308;2023-05-25T01:34:45;100724.00;;;10.05;92.28
15634;BME280;14654;48.898;8.308;2023-05-25T01:37:12;100727.44;;;10.01;92.14
15634;BME280;14654;48.898;8.308;2023-05-25T01:39:39;100723.97;;;9.93;91.94
15634;BME280;14654;48.898;8.308;2023-05-25T01:42:04;100722.25;;;9.78;91.68
15634;BME280;14654;48.898;8.308;2023-05-25T01:44:30;100731.69;;;9.68;91.39
15634;BME280;14654;48.898;8.308;2023-05-25T01:47:43;100726.50;;;9.57;90.99
15634;BME280;14654;48.898;8.308;2023-05-25T01:49:55;100722.16;;;9.42;91.73
15634;BME280;14654;48.898;8.308;2023-05-25T01:52:24;100730.78;;;9.44;91.24
15634;BME280;14654;48.898;8.308;2023-05-25T01:54:52;100724.72;;;9.33;91.90
15634;BME280;14654;48.898;8.308;2023-05-25T01:57:19;100717.78;;;9.15;92.94
15634;BME280;14654;48.898;8.308;2023-05-25T01:59:46;100723.78;;;9.09;93.06
15634;BME280;14654;48.898;8.308;2023-05-25T02:02:17;100721.19;;;9.05;93.68
15634;BME280;14654;48.898;8.308;2023-05-25T02:04:43;100720.31;;;9.04;93.62
15634;BME280;14654;48.898;8.308;2023-05-25T02:07:08;100723.75;;;9.05;93.83
15634;BME280;14654;48.898;8.308;2023-05-25T02:09:34;100728.06;;;9.07;93.70
15634;BME280;14654;48.898;8.308;2023-05-25T02:11:59;100733.22;;;9.09;94.27
15634;BME280;14654;48.898;8.308;2023-05-25T02:14:25;100730.66;;;9.10;94.48
15634;BME280;14654;48.898;8.308;2023-05-25T02:16:50;100722.91;;;9.10;94.76
15634;BME280;14654;48.898;8.308;2023-05-25T02:19:16;100729.81;;;9.16;95.75
15634;BME280;14654;48.898;8.308;2023-05-25T02:21:41;100719.56;;;9.38;95.08
15634;BME280;14654;48.898;8.308;2023-05-25T02:24:07;100719.56;;;9.36;95.09
15634;BME280;14654;48.898;8.308;2023-05-25T02:26:34;100726.50;;;9.56;94.31
15634;BME280;14654;48.898;8.308;2023-05-25T02:29:00;100718.75;;;9.53;93.88
15634;BME280;14654;48.898;8.308;2023-05-25T02:31:26;100726.47;;;9.45;94.63
15634;BME280;14654;48.898;8.308;2023-05-25T02:33:52;100714.44;;;9.50;94.66
15634;BME280;14654;48.898;8.308;2023-05-25T02:36:17;100712.72;;;9.57;93.60
15634;BME280;14654;48.898;8.308;2023-05-25T02:38:42;100714.44;;;9.47;93.81
15634;BME280;14654;48.898;8.308;2023-05-25T02:41:08;100715.28;;;9.41;93.63
15634;BME280;14654;48.898;8.308;2023-05-25T02:43:33;100716.97;;;9.41;94.86
15634;BME280;14654;48.898;8.308;2023-05-25T02:45:58;100718.72;;;9.46;93.72
15634;BME280;14654;48.898;8.308;2023-05-25T02:48:24;100739.41;;;9.57;92.12
15634;BME280;14654;48.898;8.308;2023-05-25T02:50:49;100723.03;;;9.55;91.89
15634;BME280;14654;48.898;8.308;2023-05-25T02:53:15;100725.63;;;9.58;91.21
15634;BME280;14654;48.898;8.308;2023-05-25T02:55:40;100727.41;;;9.66;91.15
15634;BME280;14654;48.898;8.308;2023-05-25T02:58:07;100727.38;;;9.58;91.34
15634;BME280;14654;48.898;8.308;2023-05-25T03:00:32;100726.50;;;9.60;91.13
15634;BME280;14654;48.898;8.308;2023-05-25T03:02:58;100729.09;;;9.56;91.87
15634;BME280;14654;48.898;8.308;2023-05-25T03:05:23;100728.25;;;9.72;91.84
15634;BME280;14654;48.898;8.308;2023-05-25T03:07:48;100729.09;;;9.60;92.20
15634;BME280;14654;48.898;8.308;2023-05-25T03:10:14;100727.34;;;9.52;92.37
15634;BME280;14654;48.898;8.308;2023-05-25T03:12:39;100739.38;;;9.42;93.04
15634;BME280;14654;48.898;8.308;2023-05-25T03:15:05;100740.22;;;9.32;92.87
15634;BME280;14654;48.898;8.308;2023-05-25T03:17:30;100747.06;;;9.26;92.85
15634;BME280;14654;48.898;8.308;2023-05-25T03:19:56;100746.22;;;9.21;92.89
15634;BME280;14654;48.898;8.308;2023-05-25T03:22:21;100757.34;;;9.12;93.52
15634;BME280;14654;48.898;8.308;2023-05-25T03:24:46;100752.13;;;9.02;94.32
15634;BME280;14654;48.898;8.308;2023-05-25T03:27:13;100764.19;;;8.98;95.04
15634;BME280;14654;48.898;8.308;2023-05-25T03:29:38;100757.28;;;8.92;95.19
15634;BME280;14654;48.898;8.308;2023-05-25T03:32:04;100759.00;;;8.98;94.92
15634;BME280;14654;48.898;8.308;2023-05-25T03:34:29;100760.69;;;8.90;95.26
15634;BME280;14654;48.898;8.308;2023-05-25T03:36:58;100770.97;;;8.80;95.63
15634;BME280;14654;48.898;8.308;2023-05-25T03:39:24;100764.91;;;8.78;95.97
15634;BME280;14654;48.898;8.308;2023-05-25T03:41:49;100764.03;;;8.75;96.33
15634;BME280;14654;48.898;8.308;2023-05-25T03:44:15;100761.44;;;8.73;96.67
15634;BME280;14654;48.898;8.308;2023-05-25T03:46:40;100769.16;;;8.70;97.03
15634;BME280;14654;48.898;8.308;2023-05-25T03:49:06;100765.63;;;8.59;97.25
15634;BME280;14654;48.898;8.308;2023-05-25T03:51:31;100765.69;;;8.65;97.62
15634;BME280;14654;48.898;8.308;2023-05-25T03:53:56;100763.13;;;8.69;97.95
15634;BME280;14654;48.898;8.308;2023-05-25T03:56:22;100768.28;;;8.71;98.27
15634;BME280;14654;48.898;8.308;2023-05-25T03:58:47;100766.56;;;8.70;98.81
15634;BME280;14654;48.898;8.308;2023-05-25T04:01:13;100782.09;;;8.76;98.93
15634;BME280;14654;48.898;8.308;2023-05-25T04:03:38;100773.50;;;8.79;98.71
15634;BME280;14654;48.898;8.308;2023-05-25T04:06:04;100771.03;;;8.97;98.79
15634;BME280;14654;48.898;8.308;2023-05-25T04:08:29;100771.00;;;8.88;99.99
15634;BME280;14654;48.898;8.308;2023-05-25T04:10:55;100778.78;;;8.91;100.00
15634;BME280;14654;48.898;8.308;2023-05-25T04:13:21;100774.44;;;8.93;100.00
15634;BME280;14654;48.898;8.308;2023-05-25T04:15:46;100765.03;;;9.00;100.00
15634;BME280;14654;48.898;8.308;2023-05-25T04:18:12;100778.84;;;9.10;99.96
15634;BME280;14654;48.898;8.308;2023-05-25T04:20:37;100775.44;;;9.12;99.88
15634;BME280;14654;48.898;8.308;2023-05-25T04:23:02;100783.22;;;9.23;99.55
15634;BME280;14654;48.898;8.308;2023-05-25T04:25:27;100786.69;;;9.33;99.11
15634;BME280;14654;48.898;8.308;2023-05-25T04:27:53;100781.59;;;9.44;99.01
15634;BME280;14654;48.898;8.308;2023-05-25T04:30:21;100790.25;;;9.58;97.69
15634;BME280;14654;48.898;8.308;2023-05-25T04:32:46;100784.28;;;9.73;97.10
15634;BME280;14654;48.898;8.308;2023-05-25T04:35:11;100783.44;;;9.90;96.70
15634;BME280;14654;48.898;8.308;2023-05-25T04:37:39;100788.66;;;10.13;95.92
15634;BME280;14654;48.898;8.308;2023-05-25T04:40:05;100792.97;;;10.36;94.63
15634;BME280;14654;48.898;8.308;2023-05-25T04:42:41;100796.44;;;10.58;93.66
15634;BME280;14654;48.898;8.308;2023-05-25T04:45:07;100793.84;;;10.64;92.82
15634;BME280;14654;48.898;8.308;2023-05-25T04:47:35;100796.41;;;10.66;92.52
15634;BME280;14654;48.898;8.308;2023-05-25T04:50:02;100794.72;;;10.63;92.98
15634;BME280;14654;48.898;8.308;2023-05-25T04:52:28;100795.56;;;10.61;92.85
15634;BME280;14654;48.898;8.308;2023-05-25T04:54:53;100795.56;;;10.67;92.55
15634;BME280;14654;48.898;8.308;2023-05-25T04:57:19;100804.19;;;10.71;92.45
15634;BME280;14654;48.898;8.308;2023-05-25T04:59:44;100804.19;;;10.72;92.27
15634;BME280;14654;48.898;8.308;2023-05-25T05:02:09;100802.47;;;10.79;92.03
15634;BME280;14654;48.898;8.308;2023-05-25T05:04:35;100805.91;;;10.79;92.00
15634;BME280;14654;48.898;8.308;2023-05-25T05:07:01;100806.75;;;10.85;91.07
15634;BME280;14654;48.898;8.308;2023-05-25T05:09:27;100818.78;;;11.10;90.58
15634;BME280;14654;48.898;8.308;2023-05-25T05:11:52;100810.09;;;11.33;90.14
15634;BME280;14654;48.898;8.308;2023-05-25T05:14:18;100810.06;;;11.41;89.45
15634;BME280;14654;48.898;8.308;2023-05-25T05:16:43;100804.75;;;11.66;88.04
15634;BME280;14654;48.898;8.308;2023-05-25T05:19:09;100807.28;;;11.78;87.27
15634;BME280;14654;48.898;8.308;2023-05-25T05:21:34;100809.00;;;11.82;86.69
15634;BME280;14654;48.898;8.308;2023-05-25T05:23:59;100819.25;;;12.09;85.26
15634;BME280;14654;48.898;8.308;2023-05-25T05:26:25;100822.56;;;12.26;84.93
15634;BME280;14654;48.898;8.308;2023-05-25T05:28:51;100819.91;;;12.34;84.12
15634;BME280;14654;48.898;8.308;2023-05-25T05:31:17;100812.97;;;12.38;82.64
15634;BME280;14654;48.898;8.308;2023-05-25T05:33:43;100820.63;;;12.55;83.21
15634;BME280;14654;48.898;8.308;2023-05-25T05:36:09;100824.84;;;12.67;81.77
15634;BME280;14654;48.898;8.308;2023-05-25T05:38:34;100830.00;;;12.68;81.90
15634;BME280;14654;48.898;8.308;2023-05-25T05:41:00;100827.25;;;12.87;81.41
15634;BME280;14654;48.898;8.308;2023-05-25T05:43:26;100836.81;;;12.81;80.30
15634;BME280;14654;48.898;8.308;2023-05-25T05:45:52;100830.81;;;12.75;80.23
15634;BME280;14654;48.898;8.308;2023-05-25T05:48:17;100839.34;;;12.91;81.19
15634;BME280;14654;48.898;8.308;2023-05-25T05:50:42;100830.78;;;12.78;79.46
15634;BME280;14654;48.898;8.308;2023-05-25T05:53:08;100855.88;;;12.82;79.98
15634;BME280;14654;48.898;8.308;2023-05-25T05:55:34;100838.34;;;13.03;79.94
15634;BME280;14654;48.898;8.308;2023-05-25T05:57:59;100840.72;;;13.24;78.19
15634;BME280;14654;48.898;8.308;2023-05-25T06:00:25;100851.97;;;13.26;78.58
15634;BME280;14654;48.898;8.308;2023-05-25T06:02:51;100829.34;;;13.33;78.28
15634;BME280;14654;48.898;8.308;2023-05-25T06:05:16;100848.47;;;13.27;78.11
15634;BME280;14654;48.898;8.308;2023-05-25T06:07:42;100846.53;;;13.50;77.71
15634;BME280;14654;48.898;8.308;2023-05-25T06:10:08;100855.13;;;13.55;76.81
15634;BME280;14654;48.898;8.308;2023-05-25T06:12:33;100848.31;;;13.45;78.22
15634;BME280;14654;48.898;8.308;2023-05-25T06:14:58;100854.81;;;13.78;76.81
15634;BME280;14654;48.898;8.308;2023-05-25T06:17:25;100856.81;;;13.59;77.50
15634;BME280;14654;48.898;8.308;2023-05-25T06:19:51;100845.97;;;13.92;76.70
15634;BME280;14654;48.898;8.308;2023-05-25T06:22:17;100858.97;;;13.92;76.47
15634;BME280;14654;48.898;8.308;2023-05-25T06:24:42;100856.03;;;14.15;75.59
15634;BME280;14654;48.898;8.308;2023-05-25T06:27:07;100854.94;;;14.33;76.31
15634;BME280;14654;48.898;8.308;2023-05-25T06:29:33;100853.69;;;14.56;74.88
15634;BME280;14654;48.898;8.308;2023-05-25T06:31:58;100857.00;;;14.66;74.25
15634;BME280;14654;48.898;8.308;2023-05-25T06:34:24;100853.56;;;14.65;73.82
15634;BME280;14654;48.898;8.308;2023-05-25T06:36:51;100863.25;;;14.55;74.17
15634;BME280;14654;48.898;8.308;2023-05-25T06:39:16;100855.03;;;14.82;74.08
15634;BME280;14654;48.898;8.308;2023-05-25T06:41:41;100876.44;;;14.99;73.55
15634;BME280;14654;48.898;8.308;2023-05-25T06:44:07;100871.66;;;14.74;73.63
15634;BME280;14654;48.898;8.308;2023-05-25T06:46:32;100874.22;;;14.76;73.12
15634;BME280;14654;48.898;8.308;2023-05-25T06:48:59;100858.19;;;14.99;74.02
15634;BME280;14654;48.898;8.308;2023-05-25T06:51:25;100871.56;;;14.81;73.53
15634;BME280;14654;48.898;8.308;2023-05-25T06:53:52;100858.69;;;14.71;73.38
15634;BME280;14654;48.898;8.308;2023-05-25T06:56:17;100859.44;;;14.78;74.24
15634;BME280;14654;48.898;8.308;2023-05-25T06:58:43;100866.97;;;14.95;73.73
15634;BME280;14654;48.898;8.308;2023-05-25T07:01:08;100872.75;;;15.11;73.28
15634;BME280;14654;48.898;8.308;2023-05-25T07:03:33;100868.75;;;14.91;73.43
15634;BME280;14654;48.898;8.308;2023-05-25T07:05:59;100866.69;;;15.11;73.46
15634;BME280;14654;48.898;8.308;2023-05-25T07:08:24;100869.34;;;15.07;74.04
15634;BME280;14654;48.898;8.308;2023-05-25T07:10:49;100870.00;;;15.19;73.02
15634;BME280;14654;48.898;8.308;2023-05-25T07:13:15;100861.19;;;15.26;73.50
15634;BME280;14654;48.898;8.308;2023-05-25T07:15:40;100856.41;;;15.47;71.83
15634;BME280;14654;48.898;8.308;2023-05-25T07:18:05;100864.44;;;15.36;72.17
15634;BME280;14654;48.898;8.308;2023-05-25T07:20:31;100861.47;;;15.54;72.21
15634;BME280;14654;48.898;8.308;2023-05-25T07:22:58;100842.13;;;15.66;73.11
15634;BME280;14654;48.898;8.308;2023-05-25T07:25:23;100848.47;;;15.53;72.90
15634;BME280;14654;48.898;8.308;2023-05-25T07:27:49;100856.75;;;15.30;72.65
15634;BME280;14654;48.898;8.308;2023-05-25T07:30:14;100853.81;;;15.03;73.42
15634;BME280;14654;48.898;8.308;2023-05-25T07:32:40;100849.34;;;15.09;74.07
15634;BME280;14654;48.898;8.308;2023-05-25T07:35:05;100847.22;;;15.29;74.82
15634;BME280;14654;48.898;8.308;2023-05-25T07:37:31;100842.97;;;15.67;74.00
15634;BME280;14654;48.898;8.308;2023-05-25T07:39:56;100838.88;;;15.97;73.29
15634;BME280;14654;48.898;8.308;2023-05-25T07:42:22;100833.78;;;16.29;72.35
15634;BME280;14654;48.898;8.308;2023-05-25T07:44:47;100837.91;;;16.38;71.27
15634;BME280;14654;48.898;8.308;2023-05-25T07:47:13;100846.50;;;16.43;71.09
15634;BME280;14654;48.898;8.308;2023-05-25T07:49:38;100853.03;;;16.25;72.62
15634;BME280;14654;48.898;8.308;2023-05-25T07:52:03;100835.78;;;16.18;72.79
15634;BME280;14654;48.898;8.308;2023-05-25T07:54:30;100849.88;;;16.48;71.63
15634;BME280;14654;48.898;8.308;2023-05-25T07:56:55;100855.16;;;16.45;71.41
15634;BME280;14654;48.898;8.308;2023-05-25T07:59:21;100847.53;;;16.37;71.85
15634;BME280;14654;48.898;8.308;2023-05-25T08:01:46;100842.56;;;16.61;72.31
15634;BME280;14654;48.898;8.308;2023-05-25T08:04:11;100860.53;;;16.73;72.34
15634;BME280;14654;48.898;8.308;2023-05-25T08:06:36;100837.72;;;16.80;71.55
15634;BME280;14654;48.898;8.308;2023-05-25T08:09:03;100847.97;;;16.88;71.61
15634;BME280;14654;48.898;8.308;2023-05-25T08:11:29;100848.72;;;16.95;72.15
15634;BME280;14654;48.898;8.308;2023-05-25T08:13:55;100855.72;;;16.92;71.86
15634;BME280;14654;48.898;8.308;2023-05-25T08:16:20;100860.22;;;16.87;71.59
15634;BME280;14654;48.898;8.308;2023-05-25T08:18:46;100845.88;;;16.68;71.55
15634;BME280;14654;48.898;8.308;2023-05-25T08:21:12;100865.19;;;16.62;71.89
15634;BME280;14654;48.898;8.308;2023-05-25T08:23:39;100858.44;;;16.53;72.99
15634;BME280;14654;48.898;8.308;2023-05-25T08:26:09;100857.28;;;16.65;72.97
15634;BME280;14654;48.898;8.308;2023-05-25T08:28:35;100854.56;;;16.70;72.76
15634;BME280;14654;48.898;8.308;2023-05-25T08:31:01;100870.41;;;16.64;72.67
15634;BME280;14654;48.898;8.308;2023-05-25T08:33:26;100868.78;;;16.58;73.47
15634;BME280;14654;48.898;8.308;2023-05-25T08:35:52;100878.25;;;16.62;73.29
15634;BME280;14654;48.898;8.308;2023-05-25T08:38:18;100855.69;;;16.59;73.16
15634;BME280;14654;48.898;8.308;2023-05-25T08:40:44;100865.19;;;16.62;72.86
15634;BME280;14654;48.898;8.308;2023-05-25T08:43:09;100867.75;;;16.65;73.63
15634;BME280;14654;48.898;8.308;2023-05-25T08:45:35;100866.59;;;16.75;74.88
15634;BME280;14654;48.898;8.308;2023-05-25T08:48:03;100856.91;;;16.79;73.28
15634;BME280;14654;48.898;8.308;2023-05-25T08:50:32;100868.31;;;16.78;73.05
15634;BME280;14654;48.898;8.308;2023-05-25T08:53:01;100867.28;;;16.84;74.10
15634;BME280;14654;48.898;8.308;2023-05-25T08:55:29;100857.47;;;16.92;73.26
15634;BME280;14654;48.898;8.308;2023-05-25T08:58:13;100864.16;;;17.04;74.19
15634;BME280;14654;48.898;8.308;2023-05-25T09:00:45;100853.00;;;16.97;74.00
15634;BME280;14654;48.898;8.308;2023-05-25T09:03:15;100868.00;;;16.89;74.76
15634;BME280;14654;48.898;8.308;2023-05-25T09:05:42;100864.50;;;16.90;74.70
15634;BME280;14654;48.898;8.308;2023-05-25T09:08:07;100865.38;;;16.90;74.70
15634;BME280;14654;48.898;8.308;2023-05-25T09:10:34;100868.81;;;16.92;75.30
15634;BME280;14654;48.898;8.308;2023-05-25T09:13:00;100858.53;;;16.85;74.57
15634;BME280;14654;48.898;8.308;2023-05-25T09:15:26;100873.81;;;17.02;75.13
15634;BME280;14654;48.898;8.308;2023-05-25T09:17:51;100865.75;;;17.10;74.92
15634;BME280;14654;48.898;8.308;2023-05-25T09:20:17;100860.56;;;17.08;74.94
15634;BME280;14654;48.898;8.308;2023-05-25T09:22:43;100860.25;;;17.20;75.59
15634;BME280;14654;48.898;8.308;2023-05-25T09:25:09;100852.34;;;17.22;75.07
15634;BME280;14654;48.898;8.308;2023-05-25T09:27:36;100847.28;;;17.16;74.06
15634;BME280;14654;48.898;8.308;2023-05-25T09:30:03;100879.59;;;17.13;75.42
15634;BME280;14654;48.898;8.308;2023-05-25T09:32:29;100854.25;;;17.15;75.85
15634;BME280;14654;48.898;8.308;2023-05-25T09:34:54;100861.81;;;17.26;76.42
15634;BME280;14654;48.898;8.308;2023-05-25T09:37:21;100862.34;;;17.39;75.30
15634;BME280;14654;48.898;8.308;2023-05-25T09:39:47;100868.16;;;17.49;76.45
15634;BME280;14654;48.898;8.308;2023-05-25T09:42:12;100853.09;;;17.57;74.91
15634;BME280;14654;48.898;8.308;2023-05-25T09:44:38;100862.75;;;17.55;74.94
15634;BME280;14654;48.898;8.308;2023-05-25T09:47:04;100862.16;;;17.45;75.45
15634;BME280;14654;48.898;8.308;2023-05-25T09:49:30;100850.84;;;17.45;76.23
15634;BME280;14654;48.898;8.308;2023-05-25T09:51:55;100867.41;;;17.45;75.74
15634;BME280;14654;48.898;8.308;2023-05-25T09:54:21;100854.97;;;17.54;76.90
15634;BME280;14654;48.898;8.308;2023-05-25T09:56:47;100853.78;;;17.64;75.81
15634;BME280;14654;48.898;8.308;2023-05-25T09:59:13;100858.78;;;17.72;76.28
15634;BME280;14654;48.898;8.308;2023-05-25T10:01:39;100842.94;;;17.76;76.13
15634;BME280;14654;48.898;8.308;2023-05-25T10:04:04;100853.09;;;17.87;74.99
15634;BME280;14654;48.898;8.308;2023-05-25T10:06:31;100854.16;;;17.81;74.59
15634;BME280;14654;48.898;8.308;2023-05-25T10:08:57;100849.44;;;17.93;74.71
15634;BME280;14654;48.898;8.308;2023-05-25T10:11:24;100859.81;;;17.96;74.06
15634;BME280;14654;48.898;8.308;2023-05-25T10:13:52;100840.66;;;17.94;73.64
15634;BME280;14654;48.898;8.308;2023-05-25T10:16:24;100859.75;;;17.99;74.00
15634;BME280;14654;48.898;8.308;2023-05-25T10:19:05;100855.06;;;18.09;72.34
15634;BME280;14654;48.898;8.308;2023-05-25T10:21:32;100844.81;;;18.03;72.67
15634;BME280;14654;48.898;8.308;2023-05-25T10:26:47;100872.09;;;18.24;72.10
15634;BME280;14654;48.898;8.308;2023-05-25T10:29:15;100864.03;;;18.30;71.60
15634;BME280;14654;48.898;8.308;2023-05-25T10:31:41;100870.06;;;18.32;70.38
15634;BME280;14654;48.898;8.308;2023-05-25T10:34:07;100852.13;;;18.47;72.43
15634;BME280;14654;48.898;8.308;2023-05-25T10:36:32;100847.28;;;18.61;71.43
15634;BME280;14654;48.898;8.308;2023-05-25T10:38:59;100845.94;;;18.49;71.20
15634;BME280;14654;48.898;8.308;2023-05-25T10:41:26;100858.63;;;18.62;71.77
15634;BME280;14654;48.898;8.308;2023-05-25T10:43:52;100859.72;;;18.54;70.08
15634;BME280;14654;48.898;8.308;2023-05-25T10:46:17;100836.75;;;18.63;69.98
15634;BME280;14654;48.898;8.308;2023-05-25T10:48:48;100872.47;;;18.67;70.76
15634;BME280;14654;48.898;8.308;2023-05-25T10:51:14;100851.88;;;18.54;70.28
15634;BME280;14654;48.898;8.308;2023-05-25T10:53:43;100844.72;;;18.59;70.94
15634;BME280;14654;48.898;8.308;2023-05-25T10:56:12;100846.75;;;18.77;71.84
15634;BME280;14654;48.898;8.308;2023-05-25T10:58:42;100848.84;;;18.92;70.67
15634;BME280;14654;48.898;8.308;2023-05-25T11:01:12;100846.00;;;19.00;70.93
15634;BME280;14654;48.898;8.308;2023-05-25T11:06:12;100836.28;;;19.03;69.39
15634;BME280;14654;48.898;8.308;2023-05-25T11:11:20;100835.75;;;19.17;69.93
15634;BME280;14654;48.898;8.308;2023-05-25T11:13:47;100839.88;;;19.25;69.42
15634;BME280;14654;48.898;8.308;2023-05-25T11:16:17;100858.47;;;19.18;69.04
15634;BME280;14654;48.898;8.308;2023-05-25T11:18:54;100842.09;;;19.12;69.20
15634;BME280;14654;48.898;8.308;2023-05-25T11:24:01;100852.34;;;19.43;70.40
15634;BME280;14654;48.898;8.308;2023-05-25T11:26:34;100855.16;;;19.37;68.53
15634;BME280;14654;48.898;8.308;2023-05-25T11:29:00;100845.66;;;19.34;68.77
15634;BME280;14654;48.898;8.308;2023-05-25T11:31:27;100829.47;;;19.45;69.91
15634;BME280;14654;48.898;8.308;2023-05-25T11:33:57;100845.09;;;19.50;69.76
15634;BME280;14654;48.898;8.308;2023-05-25T11:36:23;100843.22;;;19.52;69.28
15634;BME280;14654;48.898;8.308;2023-05-25T11:38:50;100834.44;;;19.53;68.36
15634;BME280;14654;48.898;8.308;2023-05-25T11:41:20;100830.44;;;19.67;69.50
15634;BME280;14654;48.898;8.308;2023-05-25T11:43:47;100830.72;;;19.83;69.10
15634;BME280;14654;48.898;8.308;2023-05-25T11:46:12;100825.53;;;19.81;68.38
15634;BME280;14654;48.898;8.308;2023-05-25T11:48:43;100822.66;;;19.89;69.14
15634;BME280;14654;48.898;8.308;2023-05-25T11:51:09;100828.84;;;20.08;69.99
15634;BME280;14654;48.898;8.308;2023-05-25T11:53:40;100849.34;;;20.00;67.82
15634;BME280;14654;48.898;8.308;2023-05-25T11:56:06;100828.13;;;20.05;68.48
15634;BME280;14654;48.898;8.308;2023-05-25T11:58:33;100828.63;;;20.15;67.90
15634;BME280;14654;48.898;8.308;2023-05-25T12:01:24;100838.22;;;20.16;66.90
15634;BME280;14654;48.898;8.308;2023-05-25T12:03:51;100826.31;;;20.28;67.38
15634;BME280;14654;48.898;8.308;2023-05-25T12:08:53;100824.16;;;20.17;66.65
15634;BME280;14654;48.898;8.308;2023-05-25T12:11:33;100831.16;;;20.16;67.06
15634;BME280;14654;48.898;8.308;2023-05-25T12:13:58;100840.53;;;20.23;67.51
15634;BME280;14654;48.898;8.308;2023-05-25T12:16:25;100820.81;;;20.34;67.39
15634;BME280;14654;48.898;8.308;2023-05-25T12:18:52;100851.22;;;20.41;68.14
15634;BME280;14654;48.898;8.308;2023-05-25T12:21:18;100816.00;;;20.23;67.44
15634;BME280;14654;48.898;8.308;2023-05-25T12:23:45;100807.44;;;20.40;68.03
15634;BME280;14654;48.898;8.308;2023-05-25T12:26:12;100815.38;;;20.38;67.52
15634;BME280;14654;48.898;8.308;2023-05-25T12:28:38;100807.88;;;20.50;66.74
15634;BME280;14654;48.898;8.308;2023-05-25T12:31:27;100820.31;;;20.25;67.40
15634;BME280;14654;48.898;8.308;2023-05-25T12:39:06;100832.53;;;20.47;68.33
15634;BME280;14654;48.898;8.308;2023-05-25T12:44:39;100827.81;;;20.35;67.11
15634;BME280;14654;48.898;8.308;2023-05-25T12:47:15;100820.31;;;20.46;66.25
15634;BME280;14654;48.898;8.308;2023-05-25T12:49:46;100814.84;;;20.51;67.20
15634;BME280;14654;48.898;8.308;2023-05-25T12:54:58;100816.00;;;20.66;67.35
15634;BME280;14654;48.898;8.308;2023-05-25T12:57:42;100811.06;;;20.58;67.09
15634;BME280;14654;48.898;8.308;2023-05-25T13:00:08;100813.44;;;20.64;67.42
15634;BME280;14654;48.898;8.308;2023-05-25T13:02:33;100804.75;;;20.83;67.71
15634;BME280;14654;48.898;8.308;2023-05-25T13:04:59;100816.06;;;21.06;66.64
15634;BME280;14654;48.898;8.308;2023-05-25T13:07:24;100809.34;;;20.98;66.14
15634;BME280;14654;48.898;8.308;2023-05-25T13:09:51;100810.56;;;20.91;66.11
15634;BME280;14654;48.898;8.308;2023-05-25T13:12:17;100804.97;;;20.99;67.15
15634;BME280;14654;48.898;8.308;2023-05-25T13:14:43;100812.19;;;20.94;66.85